createdAt,value
2022-09-10T00:01:02.648Z,14.20
2022-09-10T00:03:31.863Z,14.20
2022-09-10T00:05:59.709Z,14.20
2022-09-10T00:08:27.722Z,14.10
2022-09-10T00:10:55.546Z,14.10
2022-09-10T00:13:23.875Z,14.00
2022-09-10T00:15:54.613Z,14.00
2022-09-10T00:18:24.046Z,14.00
2022-09-10T00:20:55.212Z,13.90
2022-09-10T00:23:25.911Z,13.90
2022-09-10T00:25:54.885Z,14.00
2022-09-10T00:28:24.232Z,13.90
2022-09-10T00:30:54.519Z,13.90
2022-09-10T00:33:23.985Z,13.90
2022-09-10T00:35:53.256Z,14.00
2022-09-10T00:38:21.090Z,14.00
2022-09-10T00:40:49.420Z,14.00
2022-09-10T00:43:20.382Z,13.90
2022-09-10T00:45:50.897Z,13.90
2022-09-10T00:48:23.385Z,13.90
2022-09-10T00:50:52.228Z,14.00
2022-09-10T00:53:24.499Z,14.00
2022-09-10T00:55:54.851Z,14.00
2022-09-10T00:58:24.772Z,14.00
2022-09-10T01:00:57.264Z,14.10
2022-09-10T01:03:25.811Z,14.10
2022-09-10T01:05:54.824Z,14.10
2022-09-10T01:08:24.065Z,14.10
2022-09-10T01:11:07.636Z,14.10
2022-09-10T01:13:48.243Z,14.10
2022-09-10T01:16:24.492Z,14.10
2022-09-10T01:18:59.378Z,14.10
2022-09-10T01:21:33.404Z,14.30
2022-09-10T01:24:29.961Z,14.20
2022-09-10T01:27:43.899Z,14.30
2022-09-10T01:30:17.931Z,14.20
2022-09-10T01:33:04.292Z,14.30
2022-09-10T01:35:40.697Z,14.30
2022-09-10T01:38:13.554Z,14.20
2022-09-10T01:40:42.852Z,14.30
2022-09-10T01:43:15.131Z,14.20
2022-09-10T01:46:05.535Z,14.10
2022-09-10T01:48:54.088Z,14.00
2022-09-10T01:51:28.822Z,13.90
2022-09-10T01:54:11.145Z,13.90
2022-09-10T01:56:46.816Z,13.90
2022-09-10T01:59:27.744Z,13.90
2022-09-10T02:02:03.918Z,13.90
2022-09-10T02:04:32.904Z,13.90
2022-09-10T02:07:01.112Z,13.90
2022-09-10T02:09:29.065Z,14.00
2022-09-10T02:11:57.168Z,14.00
2022-09-10T02:14:49.215Z,14.00
2022-09-10T02:17:26.179Z,14.00
2022-09-10T02:19:56.097Z,14.00
2022-09-10T02:22:25.888Z,14.00
2022-09-10T02:24:53.920Z,14.00
2022-09-10T02:27:21.711Z,14.10
2022-09-10T02:29:51.130Z,14.10
2022-09-10T02:32:18.878Z,14.10
2022-09-10T02:34:46.815Z,14.10
2022-09-10T02:37:16.817Z,14.20
2022-09-10T02:39:44.845Z,14.30
2022-09-10T02:42:17.952Z,14.40
2022-09-10T02:44:48.005Z,14.40
2022-09-10T02:47:19.280Z,14.40
2022-09-10T02:49:47.287Z,14.40
2022-09-10T02:52:15.142Z,14.40
2022-09-10T02:54:43.134Z,14.40
2022-09-10T02:57:12.214Z,14.40
2022-09-10T02:59:39.995Z,14.30
2022-09-10T03:02:07.941Z,14.30
2022-09-10T03:04:37.160Z,14.20
2022-09-10T03:07:05.292Z,14.20
2022-09-10T03:09:35.883Z,14.20
2022-09-10T03:12:05.513Z,14.10
2022-09-10T03:14:34.156Z,14.10
2022-09-10T03:17:03.019Z,14.10
2022-09-10T03:19:31.317Z,14.10
2022-09-10T03:22:01.453Z,14.00
2022-09-10T03:24:29.461Z,14.00
2022-09-10T03:26:58.431Z,14.00
2022-09-10T03:29:26.369Z,14.10
2022-09-10T03:31:54.705Z,14.10
2022-09-10T03:34:23.112Z,14.20
2022-09-10T03:36:51.387Z,14.30
2022-09-10T03:39:20.490Z,14.30
2022-09-10T03:41:48.263Z,14.30
2022-09-10T03:44:17.168Z,14.30
2022-09-10T03:46:45.653Z,14.40
2022-09-10T03:49:17.240Z,14.30
2022-09-10T03:51:45.169Z,14.40
2022-09-10T03:54:15.838Z,14.40
2022-09-10T03:56:47.123Z,14.40
2022-09-10T03:59:15.405Z,14.40
2022-09-10T04:01:43.875Z,14.40
2022-09-10T04:04:12.683Z,14.50
2022-09-10T04:06:40.525Z,14.50
2022-09-10T04:09:08.375Z,14.50
2022-09-10T04:11:36.225Z,14.40
2022-09-10T04:14:05.832Z,14.40
2022-09-10T04:16:37.174Z,14.40
2022-09-10T04:19:06.370Z,14.20
2022-09-10T04:21:35.552Z,14.10
2022-09-10T04:24:03.970Z,14.10
2022-09-10T04:26:32.020Z,14.10
2022-09-10T04:28:59.802Z,14.10
2022-09-10T04:31:28.960Z,14.20
2022-09-10T04:34:02.041Z,14.20
2022-09-10T04:36:30.496Z,14.30
2022-09-10T04:38:59.015Z,14.40
2022-09-10T04:41:27.331Z,14.40
2022-09-10T04:43:55.803Z,14.40
2022-09-10T04:46:24.627Z,14.40
2022-09-10T04:48:55.753Z,14.40
2022-09-10T04:51:25.579Z,14.50
2022-09-10T04:53:55.825Z,14.50
2022-09-10T04:56:28.375Z,14.40
2022-09-10T04:58:56.332Z,14.50
2022-09-10T05:01:24.355Z,14.40
2022-09-10T05:03:55.460Z,14.40
2022-09-10T05:06:24.109Z,14.40
2022-09-10T05:08:51.882Z,14.30
2022-09-10T05:11:20.601Z,14.30
2022-09-10T05:13:49.362Z,14.30
2022-09-10T05:16:21.911Z,14.40
2022-09-10T05:18:49.780Z,14.40
2022-09-10T05:21:20.216Z,14.40
2022-09-10T05:23:48.195Z,14.40
2022-09-10T05:26:16.140Z,14.40
2022-09-10T05:28:44.237Z,14.40
2022-09-10T05:31:17.322Z,14.40
2022-09-10T05:33:46.262Z,14.40
2022-09-10T05:36:14.702Z,14.50
2022-09-10T05:38:45.762Z,14.40
2022-09-10T05:41:14.261Z,14.30
2022-09-10T05:43:48.143Z,14.30
2022-09-10T05:46:16.063Z,14.40
2022-09-10T05:48:47.632Z,14.40
2022-09-10T05:51:15.931Z,14.50
2022-09-10T05:53:46.244Z,14.50
2022-09-10T05:56:14.247Z,14.50
2022-09-10T05:58:45.071Z,14.60
2022-09-10T06:01:15.372Z,14.60
2022-09-10T06:03:44.552Z,14.70
2022-09-10T06:06:12.712Z,14.80
2022-09-10T06:08:51.041Z,14.80
2022-09-10T06:11:26.339Z,14.80
2022-09-10T06:13:54.196Z,14.80
2022-09-10T06:16:22.238Z,14.90
2022-09-10T06:18:50.379Z,14.90
2022-09-10T06:21:28.171Z,15.00
2022-09-10T06:23:58.657Z,15.00
2022-09-10T06:26:29.246Z,14.90
2022-09-10T06:29:00.901Z,14.90
2022-09-10T06:31:29.401Z,14.90
2022-09-10T06:33:57.846Z,14.90
2022-09-10T06:36:29.508Z,14.90
2022-09-10T06:38:59.906Z,14.90
2022-09-10T06:41:30.953Z,15.00
2022-09-10T06:44:06.905Z,15.10
2022-09-10T06:47:17.873Z,15.10
2022-09-10T06:49:31.324Z,15.10
2022-09-10T06:51:59.193Z,15.10
2022-09-10T06:54:29.202Z,15.10
2022-09-10T06:57:01.421Z,15.10
2022-09-10T06:59:31.502Z,15.20
2022-09-10T07:02:00.467Z,15.20
2022-09-10T07:04:29.078Z,15.20
2022-09-10T07:06:59.602Z,15.20
2022-09-10T07:09:28.881Z,15.20
2022-09-10T07:11:59.433Z,15.30
2022-09-10T07:14:30.530Z,15.30
2022-09-10T07:16:59.044Z,15.40
2022-09-10T07:19:29.707Z,15.30
2022-09-10T07:21:57.899Z,15.30
2022-09-10T07:24:26.345Z,15.30
2022-09-10T07:27:12.332Z,15.30
2022-09-10T07:29:43.107Z,15.40
2022-09-10T07:32:15.186Z,15.30
2022-09-10T07:34:43.183Z,15.30
2022-09-10T07:37:15.709Z,15.30
2022-09-10T07:39:43.967Z,15.30
2022-09-10T07:42:14.344Z,15.40
2022-09-10T07:44:42.336Z,15.40
2022-09-10T07:47:10.182Z,15.40
2022-09-10T07:49:38.875Z,15.40
2022-09-10T07:52:08.014Z,15.40
2022-09-10T07:54:43.958Z,15.40
2022-09-10T07:57:13.130Z,15.40
2022-09-10T07:59:41.432Z,15.40
2022-09-10T08:02:10.854Z,15.50
2022-09-10T08:04:39.572Z,15.40
2022-09-10T08:07:11.604Z,15.50
2022-09-10T08:09:43.172Z,15.40
2022-09-10T08:12:17.649Z,15.50
2022-09-10T08:14:46.152Z,15.50
2022-09-10T08:17:14.588Z,15.70
2022-09-10T08:19:45.098Z,15.80
2022-09-10T08:22:14.163Z,15.90
2022-09-10T08:24:48.622Z,16.00
2022-09-10T08:27:18.497Z,16.20
2022-09-10T08:29:48.000Z,16.30
2022-09-10T08:32:15.991Z,16.20
2022-09-10T08:34:43.824Z,16.20
2022-09-10T08:37:13.386Z,16.20
2022-09-10T08:39:41.789Z,16.30
2022-09-10T08:42:17.235Z,16.30
2022-09-10T08:44:51.299Z,16.20
2022-09-10T08:47:32.169Z,16.20
2022-09-10T08:50:13.165Z,16.10
2022-09-10T08:52:48.852Z,16.00
2022-09-10T08:55:28.875Z,16.10
2022-09-10T08:58:01.034Z,16.00
2022-09-10T09:00:34.590Z,16.20
2022-09-10T09:03:12.193Z,16.20
2022-09-10T09:05:46.856Z,16.20
2022-09-10T09:08:18.280Z,16.40
2022-09-10T09:10:51.416Z,16.50
2022-09-10T09:13:38.708Z,16.60
2022-09-10T09:16:21.547Z,16.50
2022-09-10T09:19:02.518Z,16.60
2022-09-10T09:21:41.892Z,16.70
2022-09-10T09:24:19.226Z,16.70
2022-09-10T09:26:54.634Z,16.80
2022-09-10T09:29:28.224Z,16.90
2022-09-10T09:32:02.767Z,16.90
2022-09-10T09:34:37.051Z,17.10
2022-09-10T09:37:16.578Z,17.20
2022-09-10T09:39:54.086Z,17.30
2022-09-10T09:42:29.966Z,17.50
2022-09-10T09:45:03.863Z,17.60
2022-09-10T09:47:33.777Z,17.60
2022-09-10T09:50:01.707Z,17.50
2022-09-10T09:52:32.089Z,17.40
2022-09-10T09:55:21.185Z,17.50
2022-09-10T09:57:48.955Z,17.40
2022-09-10T10:00:37.773Z,17.10
2022-09-10T10:03:16.418Z,17.10
2022-09-10T10:05:44.693Z,16.90
2022-09-10T10:08:30.765Z,17.00
2022-09-10T10:11:03.417Z,17.10
2022-09-10T10:13:38.676Z,17.20
2022-09-10T10:16:18.748Z,17.30
2022-09-10T10:18:47.902Z,17.50
2022-09-10T10:21:21.142Z,17.50
2022-09-10T10:23:49.817Z,17.60
2022-09-10T10:26:30.309Z,17.70
2022-09-10T10:29:01.396Z,17.80
2022-09-10T10:31:38.682Z,17.90
2022-09-10T10:34:23.523Z,17.80
2022-09-10T10:36:59.980Z,17.80
2022-09-10T10:39:45.684Z,17.90
2022-09-10T10:42:25.217Z,18.00
2022-09-10T10:45:08.162Z,17.90
2022-09-10T10:47:48.457Z,17.90
2022-09-10T10:50:29.624Z,17.90
2022-09-10T10:53:16.023Z,18.10
2022-09-10T10:55:48.077Z,18.20
2022-09-10T10:58:31.403Z,18.40
2022-09-10T11:01:06.359Z,18.40
2022-09-10T11:03:44.202Z,18.70
2022-09-10T11:06:17.047Z,18.90
2022-09-10T11:08:50.809Z,19.00
2022-09-10T11:11:23.244Z,19.00
2022-09-10T11:13:56.755Z,19.20
2022-09-10T11:16:29.146Z,19.40
2022-09-10T11:19:02.841Z,19.80
2022-09-10T11:21:38.174Z,19.70
2022-09-10T11:24:16.364Z,19.80
2022-09-10T11:26:49.113Z,19.80
2022-09-10T11:29:29.380Z,20.20
2022-09-10T11:32:03.512Z,20.20
2022-09-10T11:34:39.052Z,20.10
2022-09-10T11:37:16.354Z,20.00
2022-09-10T11:39:48.287Z,20.00
2022-09-10T11:42:24.262Z,19.90
2022-09-10T11:45:01.414Z,19.80
2022-09-10T11:47:33.252Z,19.70
2022-09-10T11:50:06.936Z,19.90
2022-09-10T11:52:40.441Z,20.00
2022-09-10T11:55:14.912Z,20.20
2022-09-10T11:58:01.972Z,19.80
2022-09-10T12:00:33.695Z,19.80
2022-09-10T12:03:33.607Z,19.70
2022-09-10T12:06:07.935Z,19.60
2022-09-10T12:08:55.534Z,19.80
2022-09-10T12:11:29.532Z,20.10
2022-09-10T12:13:58.774Z,19.90
2022-09-10T12:16:35.739Z,19.80
2022-09-10T12:19:08.392Z,19.70
2022-09-10T12:21:39.996Z,19.50
2022-09-10T12:24:28.091Z,19.10
2022-09-10T12:26:56.576Z,18.90
2022-09-10T12:29:31.002Z,18.70
2022-09-10T12:32:37.582Z,18.50
2022-09-10T12:35:41.735Z,18.20
2022-09-10T12:38:46.915Z,17.80
2022-09-10T12:41:54.375Z,17.60
2022-09-10T12:44:52.450Z,17.40
2022-09-10T12:47:42.237Z,17.20
2022-09-10T12:50:29.584Z,17.10
2022-09-10T12:53:21.920Z,17.10
2022-09-10T12:56:00.308Z,17.20
2022-09-10T12:58:53.130Z,17.30
2022-09-10T13:01:37.230Z,17.40
2022-09-10T13:04:05.375Z,17.50
2022-09-10T13:06:38.184Z,17.90
2022-09-10T13:09:17.602Z,18.30
2022-09-10T13:11:48.263Z,18.60
2022-09-10T13:14:22.265Z,19.20
2022-09-10T13:16:50.343Z,19.00
2022-09-10T13:19:52.054Z,18.90
2022-09-10T13:23:01.697Z,18.90
2022-09-10T13:25:36.669Z,18.80
2022-09-10T13:28:20.354Z,18.50
2022-09-10T13:30:50.722Z,18.40
2022-09-10T13:33:23.167Z,18.40
2022-09-10T13:36:19.516Z,18.40
2022-09-10T13:39:16.228Z,18.60
2022-09-10T13:42:14.751Z,18.80
2022-09-10T13:45:04.060Z,18.60
2022-09-10T13:47:39.710Z,18.60
2022-09-10T13:50:15.150Z,18.70
2022-09-10T13:52:46.971Z,18.70
2022-09-10T13:55:20.487Z,18.60
2022-09-10T13:57:50.927Z,18.70
2022-09-10T14:00:25.370Z,18.60
2022-09-10T14:02:57.233Z,18.70
2022-09-10T14:05:29.647Z,18.40
2022-09-10T14:08:01.576Z,18.30
2022-09-10T14:10:29.847Z,18.40
2022-09-10T14:12:59.242Z,18.40
2022-09-10T14:15:33.620Z,18.40
2022-09-10T14:18:02.825Z,18.60
2022-09-10T14:20:33.358Z,18.40
2022-09-10T14:23:03.683Z,18.40
2022-09-10T14:25:33.684Z,18.20
2022-09-10T14:28:24.892Z,18.20
2022-09-10T14:31:13.234Z,18.20
2022-09-10T14:33:42.356Z,18.20
2022-09-10T14:36:18.224Z,18.30
2022-09-10T14:38:54.454Z,18.20
2022-09-10T14:41:24.639Z,18.40
2022-09-10T14:44:16.413Z,18.40
2022-09-10T14:46:51.208Z,18.60
2022-09-10T14:49:27.460Z,18.40
2022-09-10T14:51:55.835Z,18.30
2022-09-10T14:54:24.520Z,18.30
2022-09-10T14:56:52.902Z,18.40
2022-09-10T14:59:29.649Z,18.30
2022-09-10T15:01:57.864Z,18.20
2022-09-10T15:04:27.382Z,18.20
2022-09-10T15:06:57.150Z,18.20
2022-09-10T15:09:26.412Z,18.20
2022-09-10T15:11:58.963Z,18.30
2022-09-10T15:14:26.944Z,18.20
2022-09-10T15:16:54.728Z,18.20
2022-09-10T15:19:23.424Z,18.10
2022-09-10T15:21:52.594Z,17.80
2022-09-10T15:24:22.822Z,17.80
2022-09-10T15:26:51.665Z,17.90
2022-09-10T15:29:19.688Z,17.90
2022-09-10T15:31:47.463Z,17.90
2022-09-10T15:34:15.627Z,17.80
2022-09-10T15:36:44.091Z,17.80
2022-09-10T15:39:14.235Z,17.70
2022-09-10T15:41:44.348Z,17.70
2022-09-10T15:44:12.859Z,17.70
2022-09-10T15:46:47.730Z,17.80
2022-09-10T15:49:15.660Z,17.80
2022-09-10T15:51:43.767Z,17.90
2022-09-10T15:54:13.954Z,18.00
2022-09-10T15:56:41.794Z,17.90
2022-09-10T15:59:10.225Z,18.00
2022-09-10T16:01:39.102Z,17.90
2022-09-10T16:04:07.024Z,17.80
2022-09-10T16:06:37.664Z,17.90
2022-09-10T16:09:09.077Z,18.00
2022-09-10T16:11:40.302Z,17.90
2022-09-10T16:14:11.958Z,17.80
2022-09-10T16:16:40.845Z,17.80
2022-09-10T16:19:09.827Z,17.70
2022-09-10T16:21:39.299Z,17.60
2022-09-10T16:24:07.962Z,17.60
2022-09-10T16:26:38.760Z,17.50
2022-09-10T16:29:08.748Z,17.60
2022-09-10T16:31:39.081Z,17.40
2022-09-10T16:34:08.736Z,17.50
2022-09-10T16:36:37.964Z,17.40
2022-09-10T16:39:11.902Z,17.40
2022-09-10T16:41:42.282Z,17.50
2022-09-10T16:44:10.999Z,17.40
2022-09-10T16:46:39.584Z,17.40
2022-09-10T16:49:08.887Z,17.40
2022-09-10T16:51:36.801Z,17.40
2022-09-10T16:54:07.150Z,17.30
2022-09-10T16:56:37.873Z,17.30
2022-09-10T16:59:07.475Z,17.30
2022-09-10T17:01:35.851Z,17.30
2022-09-10T17:04:04.911Z,17.30
2022-09-10T17:06:33.561Z,17.20
2022-09-10T17:09:02.536Z,17.20
2022-09-10T17:11:32.802Z,17.10
2022-09-10T17:14:02.550Z,17.10
2022-09-10T17:16:33.469Z,17.00
2022-09-10T17:19:02.940Z,16.90
2022-09-10T17:21:32.600Z,17.00
2022-09-10T17:24:01.322Z,16.90
2022-09-10T17:26:30.321Z,16.90
2022-09-10T17:28:59.856Z,16.90
2022-09-10T17:31:29.450Z,16.80
2022-09-10T17:33:59.162Z,16.80
2022-09-10T17:36:27.806Z,16.80
2022-09-10T17:38:57.929Z,16.80
2022-09-10T17:41:26.345Z,16.80
2022-09-10T17:43:54.385Z,16.80
2022-09-10T17:46:24.161Z,16.70
2022-09-10T17:48:53.504Z,16.70
2022-09-10T17:51:25.092Z,16.70
2022-09-10T17:53:55.175Z,16.70
2022-09-10T17:56:24.919Z,16.60
2022-09-10T17:58:57.182Z,16.60
2022-09-10T18:01:26.595Z,16.60
2022-09-10T18:03:55.313Z,16.60
2022-09-10T18:06:25.422Z,16.50
2022-09-10T18:08:53.635Z,16.50
2022-09-10T18:11:27.026Z,16.50
2022-09-10T18:13:58.099Z,16.50
2022-09-10T18:16:28.725Z,16.50
2022-09-10T18:18:58.238Z,16.40
2022-09-10T18:21:29.412Z,16.40
2022-09-10T18:24:00.162Z,16.40
2022-09-10T18:26:30.055Z,16.40
2022-09-10T18:29:00.087Z,16.40
2022-09-10T18:31:30.072Z,16.50
2022-09-10T18:33:58.492Z,16.60
2022-09-10T18:36:28.655Z,16.50
2022-09-10T18:38:56.604Z,16.50
2022-09-10T18:41:26.861Z,16.40
2022-09-10T18:43:57.263Z,16.30
2022-09-10T18:46:26.082Z,16.40
2022-09-10T18:48:54.456Z,16.40
2022-09-10T18:51:24.695Z,16.40
2022-09-10T18:53:56.253Z,16.40
2022-09-10T18:56:26.152Z,16.40
2022-09-10T18:58:55.841Z,16.40
2022-09-10T19:01:24.894Z,16.40
2022-09-10T19:03:53.057Z,16.40
2022-09-10T19:06:23.933Z,16.30
2022-09-10T19:08:57.682Z,16.30
2022-09-10T19:11:27.489Z,16.30
2022-09-10T19:13:57.495Z,16.30
2022-09-10T19:16:27.659Z,16.30
2022-09-10T19:18:57.358Z,16.30
2022-09-10T19:21:26.986Z,16.40
2022-09-10T19:23:59.576Z,16.40
2022-09-10T19:26:29.471Z,16.40
2022-09-10T19:28:58.245Z,16.40
2022-09-10T19:31:28.019Z,16.40
2022-09-10T19:33:57.664Z,16.30
2022-09-10T19:36:27.605Z,16.20
2022-09-10T19:38:56.797Z,16.20
2022-09-10T19:41:25.456Z,16.20
2022-09-10T19:43:55.215Z,16.20
2022-09-10T19:46:25.006Z,16.20
2022-09-10T19:48:53.138Z,16.10
2022-09-10T19:51:21.694Z,16.10
2022-09-10T19:53:50.845Z,16.10
2022-09-10T19:56:21.707Z,16.10
2022-09-10T19:58:51.199Z,16.00
2022-09-10T20:01:21.394Z,16.00
2022-09-10T20:03:50.649Z,16.00
2022-09-10T20:06:21.145Z,16.00
2022-09-10T20:08:50.626Z,16.10
2022-09-10T20:11:21.602Z,16.00
2022-09-10T20:13:50.231Z,15.90
2022-09-10T20:16:18.638Z,15.80
2022-09-10T20:18:46.646Z,15.90
2022-09-10T20:21:16.995Z,15.90
2022-09-10T20:23:47.020Z,15.80
2022-09-10T20:26:18.945Z,15.80
2022-09-10T20:28:53.299Z,15.80
2022-09-10T20:31:22.671Z,15.90
2022-09-10T20:33:55.396Z,16.00
2022-09-10T20:36:24.039Z,15.90
2022-09-10T20:38:52.101Z,15.90
2022-09-10T20:41:20.618Z,15.90
2022-09-10T20:43:52.798Z,15.90
2022-09-10T20:46:22.671Z,15.90
2022-09-10T20:48:51.458Z,15.80
2022-09-10T20:51:20.511Z,15.90
2022-09-10T20:53:49.172Z,15.80
2022-09-10T20:56:20.110Z,15.80
2022-09-10T20:58:48.644Z,15.70
2022-09-10T21:01:19.748Z,15.80
2022-09-10T21:03:48.784Z,15.80
2022-09-10T21:06:19.588Z,15.70
2022-09-10T21:08:49.306Z,15.70
2022-09-10T21:11:18.837Z,15.70
2022-09-10T21:13:48.370Z,15.70
2022-09-10T21:16:18.954Z,15.70
2022-09-10T21:18:53.576Z,15.70
2022-09-10T21:21:25.401Z,15.80
2022-09-10T21:23:55.151Z,15.80
2022-09-10T21:26:26.051Z,15.70
2022-09-10T21:28:55.942Z,15.70
2022-09-10T21:31:27.110Z,15.80
2022-09-10T21:34:01.898Z,15.70
2022-09-10T21:36:31.055Z,15.70
2022-09-10T21:39:00.914Z,15.70
2022-09-10T21:41:31.718Z,15.80
2022-09-10T21:44:00.356Z,15.70
2022-09-10T21:46:30.349Z,15.80
2022-09-10T21:48:58.422Z,15.60
2022-09-10T21:51:26.545Z,15.60
2022-09-10T21:53:55.801Z,15.70
2022-09-10T21:56:25.854Z,15.70
2022-09-10T21:58:53.766Z,15.70
2022-09-10T22:01:23.691Z,15.60
2022-09-10T22:03:53.644Z,15.70
2022-09-10T22:06:23.934Z,15.70
2022-09-10T22:08:53.518Z,15.70
2022-09-10T22:11:24.631Z,15.70
2022-09-10T22:13:53.799Z,15.70
2022-09-10T22:16:22.675Z,15.70
2022-09-10T22:18:51.293Z,15.60
2022-09-10T22:21:20.636Z,15.60
2022-09-10T22:23:51.444Z,15.70
2022-09-10T22:26:22.397Z,15.70
2022-09-10T22:28:54.106Z,15.70
2022-09-10T22:31:24.161Z,15.70
2022-09-10T22:33:54.822Z,15.60
2022-09-10T22:36:26.284Z,15.60
2022-09-10T22:38:56.118Z,15.50
2022-09-10T22:41:24.253Z,15.50
2022-09-10T22:43:52.502Z,15.50
2022-09-10T22:46:20.711Z,15.50
2022-09-10T22:48:48.587Z,15.40
2022-09-10T22:51:18.759Z,15.40
2022-09-10T22:53:48.180Z,15.50
2022-09-10T22:56:17.660Z,15.40
2022-09-10T22:58:46.164Z,15.40
2022-09-10T23:01:16.268Z,15.40
2022-09-10T23:03:45.204Z,15.50
2022-09-10T23:06:16.043Z,15.50
2022-09-10T23:08:45.073Z,15.50
2022-09-10T23:11:16.494Z,15.50
2022-09-10T23:13:45.380Z,15.50
2022-09-10T23:16:15.408Z,15.50
2022-09-10T23:18:44.806Z,15.50
2022-09-10T23:21:13.862Z,15.50
2022-09-10T23:23:45.191Z,15.50
2022-09-10T23:26:14.979Z,15.50
2022-09-10T23:28:43.179Z,15.50
2022-09-10T23:31:14.043Z,15.60
2022-09-10T23:33:45.009Z,15.60
2022-09-10T23:36:14.164Z,15.70
2022-09-10T23:38:43.487Z,15.70
2022-09-10T23:41:12.782Z,15.60
2022-09-10T23:43:41.978Z,15.60
2022-09-10T23:46:10.704Z,15.60
2022-09-10T23:48:39.140Z,15.50
2022-09-10T23:51:07.828Z,15.50
2022-09-10T23:53:35.921Z,15.40
2022-09-10T23:56:04.823Z,15.50
2022-09-10T23:58:32.724Z,15.40
